Saint-Paul-De-Montminy, Canada
Current Conditions -  °F | °C
As of 1:00 PM on Thursday 27 Nov 2014 (Local Time) from CYQB Reporting Station
Scattered Clouds Scattered Clouds  
Wind Chill: 32°   Ceiling: Unl
Heat Index: 32°   Visibility: 30mi
Dew Point: 10°   Wind: 3mph
Humidity: 41%   Direction: 260°W
Pressure: 29.96"   Gusts: NA
Location:  46.73°N, 70.37°W
Report Text: CYQB 271800Z 26003KT 210V310 30SM FEW040 FEW170 SCT240 00/M12 A2996 RMK SC1AC1CI1 SLP150
Loading
Personal Weather Stations






























Interactive Weather Map New forecast layout! Learn more

10-Day Weather Forecast

Advertisements
Track Severe Weather on mobile